Hastings, Florida
Current Conditions -  °F | °C
As of 8:15 PM on Sunday 21 Dec 2014 (Local Time) from K28J Reporting Station
Haze Haze  
Wind Chill: 17°   Ceiling: 300
Heat Index: 17°   Visibility: 0.75mi
Dew Point: 17°   Wind: 5mph
Humidity: 100%   Direction: 350°N
Pressure: 30.07"   Gusts: NA
Location:  29.72°N, 81.51°W
Report Text: K28J 220115Z AUTO 35004KT 3/4SM BR OVC003 17/17 A3007 RMK AO2
Loading
Personal Weather Stations






























Interactive Weather Map New forecast layout! Learn more

10-Day Weather Forecast

Advertisements
Track Severe Weather on mobile